createdAt,value
2018-07-23T00:01:29.514Z,94067.10
2018-07-23T00:03:58.213Z,94072.89
2018-07-23T00:06:26.886Z,94067.55
2018-07-23T00:08:55.535Z,94065.17
2018-07-23T00:11:24.254Z,94060.67
2018-07-23T00:13:52.974Z,94052.75
2018-07-23T00:16:21.723Z,94059.67
2018-07-23T00:18:50.390Z,94059.16
2018-07-23T00:21:19.149Z,94053.60
2018-07-23T00:23:47.814Z,94054.47
2018-07-23T00:26:16.518Z,94049.44
2018-07-23T00:28:45.174Z,94044.86
2018-07-23T00:31:13.872Z,94043.74
2018-07-23T00:33:42.548Z,94048.52
2018-07-23T00:36:11.230Z,94047.19
2018-07-23T00:38:39.868Z,94045.49
2018-07-23T00:41:08.674Z,94046.97
2018-07-23T00:43:37.421Z,94050.70
2018-07-23T00:46:06.079Z,94046.73
2018-07-23T00:48:34.745Z,94045.63
2018-07-23T00:51:03.519Z,94049.29
2018-07-23T00:53:32.331Z,94048.80
2018-07-23T00:56:00.961Z,94042.96
2018-07-23T00:58:29.665Z,94043.52
2018-07-23T01:00:58.320Z,94049.13
2018-07-23T01:03:26.999Z,94052.55
2018-07-23T01:05:55.744Z,94055.49
2018-07-23T01:08:24.415Z,94052.51
2018-07-23T01:10:53.068Z,94051.21
2018-07-23T01:13:21.783Z,94050.11
2018-07-23T01:15:50.461Z,94058.22
2018-07-23T01:18:19.096Z,94052.94
2018-07-23T01:20:47.812Z,94063.00
2018-07-23T01:23:16.550Z,94053.77
2018-07-23T01:25:45.219Z,94056.13
2018-07-23T01:28:13.977Z,94051.13
2018-07-23T01:30:42.686Z,94052.92
2018-07-23T01:33:11.376Z,94056.60
2018-07-23T01:35:40.104Z,94050.41
2018-07-23T01:38:08.934Z,94052.31
2018-07-23T01:40:37.618Z,94049.33
2018-07-23T01:43:06.412Z,94049.88
2018-07-23T01:45:35.111Z,94054.02
2018-07-23T01:48:03.814Z,94054.42
2018-07-23T01:50:32.471Z,94057.33
2018-07-23T01:53:01.136Z,94052.22
2018-07-23T01:55:29.921Z,94052.50
2018-07-23T01:57:58.623Z,94048.79
2018-07-23T02:00:27.339Z,94045.28
2018-07-23T02:02:56.094Z,94036.80
2018-07-23T02:05:24.781Z,94032.01
2018-07-23T02:07:53.462Z,94032.31
2018-07-23T02:10:22.180Z,94034.45
2018-07-23T02:12:50.913Z,94040.18
2018-07-23T02:15:19.604Z,94042.84
2018-07-23T02:17:48.283Z,94054.11
2018-07-23T02:20:16.955Z,94057.90
2018-07-23T02:22:45.628Z,94060.98
2018-07-23T02:25:14.340Z,94063.87
2018-07-23T02:27:43.005Z,94057.25
2018-07-23T02:30:11.748Z,94059.11
2018-07-23T02:32:40.406Z,94060.42
2018-07-23T02:35:09.143Z,94054.11
2018-07-23T02:37:37.845Z,94053.02
2018-07-23T02:40:06.846Z,94051.69
2018-07-23T02:42:35.564Z,94048.77
2018-07-23T02:45:04.335Z,94056.69
2018-07-23T02:47:33.056Z,94058.01
2018-07-23T02:50:01.782Z,94056.91
2018-07-23T02:52:30.468Z,94051.10
2018-07-23T02:54:59.152Z,94052.67
2018-07-23T02:57:27.857Z,94053.37
2018-07-23T02:59:56.592Z,94050.61
2018-07-23T03:02:25.243Z,94049.77
2018-07-23T03:04:53.952Z,94051.05
2018-07-23T03:07:22.664Z,94047.94
2018-07-23T03:09:51.423Z,94048.16
2018-07-23T03:12:20.111Z,94052.72
2018-07-23T03:14:48.836Z,94051.14
2018-07-23T03:17:17.579Z,94049.54
2018-07-23T03:19:46.249Z,94047.72
2018-07-23T03:22:14.976Z,94048.28
2018-07-23T03:24:43.727Z,94043.80
2018-07-23T03:27:12.452Z,94038.20
2018-07-23T03:29:41.172Z,94026.58
2018-07-23T03:32:10.496Z,94026.63
2018-07-23T03:34:39.182Z,94022.56
2018-07-23T03:37:07.871Z,94023.57
2018-07-23T03:39:36.524Z,94022.06
2018-07-23T03:42:05.199Z,94019.96
2018-07-23T03:44:33.896Z,94018.89
2018-07-23T03:47:02.835Z,94025.14
2018-07-23T03:49:31.559Z,94025.17
2018-07-23T03:52:00.259Z,94014.72
2018-07-23T03:54:28.979Z,94022.44
2018-07-23T03:56:57.707Z,94024.04
2018-07-23T03:59:26.359Z,94028.75
2018-07-23T04:01:55.079Z,94023.51
2018-07-23T04:04:23.796Z,94031.95
2018-07-23T04:06:52.497Z,94030.91
2018-07-23T04:09:21.240Z,94032.05
2018-07-23T04:11:49.988Z,94029.22
2018-07-23T04:14:18.681Z,94047.06
2018-07-23T04:16:47.344Z,94048.06
2018-07-23T04:19:16.085Z,94044.14
2018-07-23T04:21:44.863Z,94040.25
2018-07-23T04:24:13.527Z,94049.07
2018-07-23T04:26:42.198Z,94044.92
2018-07-23T04:29:10.856Z,94044.92
2018-07-23T04:31:39.542Z,94040.77
2018-07-23T04:34:08.210Z,94040.73
2018-07-23T04:36:36.933Z,94042.17
2018-07-23T04:39:07.463Z,94039.06
2018-07-23T04:41:36.769Z,94039.56
2018-07-23T04:44:05.534Z,94038.47
2018-07-23T04:46:34.252Z,94036.89
2018-07-23T04:49:02.944Z,94029.48
2018-07-23T04:51:31.587Z,94030.24
2018-07-23T04:54:00.269Z,94023.19
2018-07-23T04:56:28.932Z,94022.21
2018-07-23T04:58:57.619Z,94019.31
2018-07-23T05:01:26.279Z,94012.44
2018-07-23T05:03:55.016Z,94000.59
2018-07-23T05:06:23.788Z,94002.77
2018-07-23T05:08:52.572Z,94001.25
2018-07-23T05:11:21.211Z,94006.55
2018-07-23T05:13:49.822Z,94005.30
2018-07-23T05:16:18.503Z,93998.82
2018-07-23T05:18:47.163Z,93998.36
2018-07-23T05:21:15.899Z,94004.14
2018-07-23T05:23:44.614Z,93998.61
2018-07-23T05:26:13.283Z,93998.14
2018-07-23T05:28:41.914Z,94001.84
2018-07-23T05:31:10.605Z,94006.69
2018-07-23T05:33:39.240Z,94013.38
2018-07-23T05:36:07.987Z,94017.63
2018-07-23T05:38:36.604Z,94012.05
2018-07-23T05:41:05.271Z,94010.23
2018-07-23T05:43:33.953Z,94016.61
2018-07-23T05:46:02.666Z,94000.58
2018-07-23T05:48:31.445Z,93996.17
2018-07-23T05:51:00.130Z,93996.83
2018-07-23T05:53:28.895Z,94000.88
2018-07-23T05:55:57.558Z,94003.30
2018-07-23T05:58:26.187Z,93994.86
2018-07-23T06:00:54.880Z,93998.08
2018-07-23T06:03:23.673Z,94003.09
2018-07-23T06:05:52.314Z,94000.20
2018-07-23T06:08:20.952Z,93997.02
2018-07-23T06:10:49.647Z,93998.35
2018-07-23T06:13:18.352Z,93996.25
2018-07-23T06:15:47.096Z,94004.98
2018-07-23T06:18:15.801Z,93999.47
2018-07-23T06:20:44.498Z,94002.89
2018-07-23T06:25:40.895Z,93993.69
2018-07-23T06:28:09.615Z,93994.50
2018-07-23T06:30:38.328Z,93992.41
2018-07-23T06:33:07.053Z,93990.86
2018-07-23T06:35:36.028Z,93990.86
2018-07-23T06:38:04.810Z,93996.44
2018-07-23T06:40:33.524Z,93997.23
2018-07-23T06:43:02.625Z,93987.45
2018-07-23T06:45:31.334Z,93990.34
2018-07-23T06:47:59.977Z,93987.97
2018-07-23T06:50:28.621Z,93979.23
2018-07-23T06:52:57.315Z,93986.14
2018-07-23T06:55:26.007Z,93987.97
2018-07-23T06:57:54.738Z,93982.67
2018-07-23T07:00:23.399Z,93986.92
2018-07-23T07:02:52.364Z,93983.48
2018-07-23T07:05:20.999Z,93986.14
2018-07-23T07:07:49.642Z,93981.08
2018-07-23T07:10:18.323Z,93981.62
2018-07-23T07:12:47.550Z,93980.56
2018-07-23T07:15:16.291Z,93974.48
2018-07-23T07:17:45.014Z,93983.48
2018-07-23T07:20:15.744Z,93985.61
2018-07-23T07:22:44.442Z,93991.17
2018-07-23T07:27:56.230Z,93986.66
2018-07-23T07:30:24.844Z,93978.95
2018-07-23T07:32:53.485Z,93981.86
2018-07-23T07:35:22.174Z,93975.75
2018-07-23T07:37:50.805Z,93982.14
2018-07-23T07:40:19.553Z,93965.43
2018-07-23T07:42:48.504Z,93977.09
2018-07-23T07:45:17.453Z,93970.18
2018-07-23T07:47:46.084Z,93958.76
2018-07-23T07:50:14.843Z,93960.28
2018-07-23T07:52:43.601Z,93954.94
2018-07-23T07:55:12.308Z,93951.18
2018-07-23T07:57:41.060Z,93946.86
2018-07-23T08:00:11.003Z,93957.81
2018-07-23T08:02:39.723Z,93943.16
2018-07-23T08:05:08.552Z,93945.97
2018-07-23T08:07:37.280Z,93940.06
2018-07-23T08:10:06.279Z,93940.80
2018-07-23T08:12:35.069Z,93944.50
2018-07-23T08:15:03.798Z,93937.28
2018-07-23T08:17:36.330Z,93938.99
2018-07-23T08:20:05.642Z,93937.58
2018-07-23T08:22:34.392Z,93930.09
2018-07-23T08:25:03.141Z,93928.98
2018-07-23T08:27:31.813Z,93927.07
2018-07-23T08:30:00.565Z,93923.53
2018-07-23T08:32:31.793Z,93928.28
2018-07-23T08:35:00.469Z,93932.75
2018-07-23T08:37:29.146Z,93926.94
2018-07-23T08:39:57.961Z,93919.44
2018-07-23T08:42:27.633Z,93918.73
2018-07-23T08:44:56.966Z,93921.37
2018-07-23T08:47:25.675Z,93915.16
2018-07-23T08:49:56.898Z,93910.22
2018-07-23T08:52:26.007Z,93909.84
2018-07-23T08:54:56.016Z,93911.56
2018-07-23T08:57:24.742Z,93901.02
2018-07-23T08:59:53.453Z,93903.48
2018-07-23T09:02:23.033Z,93904.09
2018-07-23T09:04:51.672Z,93904.22
2018-07-23T09:07:20.331Z,93892.05
2018-07-23T09:09:49.384Z,93891.86
2018-07-23T09:12:18.069Z,93886.53
2018-07-23T09:14:46.748Z,93878.13
2018-07-23T09:17:15.522Z,93881.63
2018-07-23T09:19:44.118Z,93876.28
2018-07-23T09:22:12.802Z,93868.52
2018-07-23T09:24:41.528Z,93860.56
2018-07-23T09:27:10.308Z,93851.55
2018-07-23T09:29:38.978Z,93857.44
2018-07-23T09:32:07.679Z,93851.63
2018-07-23T09:34:36.554Z,93848.28
2018-07-23T09:37:05.233Z,93843.55
2018-07-23T09:39:33.942Z,93849.01
2018-07-23T09:42:02.597Z,93849.13
2018-07-23T09:44:31.351Z,93836.50
2018-07-23T09:47:00.056Z,93827.02
2018-07-23T09:49:28.701Z,93824.10
2018-07-23T09:51:57.372Z,93834.92
2018-07-23T09:54:25.990Z,93846.52
2018-07-23T09:56:54.723Z,93848.14
2018-07-23T09:59:23.496Z,93841.06
2018-07-23T10:01:52.197Z,93842.02
2018-07-23T10:04:20.920Z,93837.14
2018-07-23T10:06:49.801Z,93839.12
2018-07-23T10:09:18.450Z,93837.09
2018-07-23T10:11:47.241Z,93827.95
2018-07-23T10:14:15.874Z,93835.30
2018-07-23T10:16:44.595Z,93829.45
2018-07-23T10:19:13.319Z,93838.12
2018-07-23T10:21:42.041Z,93831.44
2018-07-23T10:24:10.712Z,93831.02
2018-07-23T10:26:39.380Z,93831.43
2018-07-23T10:29:08.401Z,93833.66
2018-07-23T10:31:37.104Z,93834.09
2018-07-23T10:34:05.790Z,93834.75
2018-07-23T10:36:34.466Z,93824.97
2018-07-23T10:39:03.321Z,93821.56
2018-07-23T10:41:32.002Z,93819.23
2018-07-23T10:44:00.731Z,93830.59
2018-07-23T10:46:29.351Z,93839.25
2018-07-23T10:48:58.029Z,93841.05
2018-07-23T10:51:26.744Z,93845.69
2018-07-23T10:53:55.401Z,93833.16
2018-07-23T10:56:24.107Z,93837.16
2018-07-23T11:01:20.713Z,93813.16
2018-07-23T11:03:49.364Z,93811.53
2018-07-23T11:06:18.014Z,93798.02
2018-07-23T11:08:46.695Z,93801.25
2018-07-23T11:11:15.430Z,93775.69
2018-07-23T11:13:44.094Z,93769.97
2018-07-23T11:16:12.805Z,93766.58
2018-07-23T11:18:43.572Z,93761.66
2018-07-23T11:21:12.303Z,93759.11
2018-07-23T11:23:40.992Z,93755.47
2018-07-23T11:26:09.689Z,93750.05
2018-07-23T11:28:39.670Z,93744.37
2018-07-23T11:31:08.328Z,93746.62
2018-07-23T11:33:37.021Z,93745.94
2018-07-23T11:36:05.654Z,93743.93
2018-07-23T11:38:34.235Z,93737.47
2018-07-23T11:41:02.988Z,93726.50
2018-07-23T11:43:31.629Z,93718.78
2018-07-23T11:46:00.240Z,93719.14
2018-07-23T11:48:28.865Z,93722.37
2018-07-23T11:50:57.830Z,93726.32
2018-07-23T11:53:26.561Z,93735.05
2018-07-23T11:55:55.870Z,93737.69
2018-07-23T11:58:24.518Z,93728.94
2018-07-23T12:00:53.223Z,93727.38
2018-07-23T12:03:21.884Z,93733.45
2018-07-23T12:05:50.659Z,93732.39
2018-07-23T12:08:19.314Z,93737.16
2018-07-23T12:10:49.091Z,93742.95
2018-07-23T12:13:17.729Z,93738.13
2018-07-23T12:15:46.367Z,93743.84
2018-07-23T12:18:15.009Z,93744.55
2018-07-23T12:20:44.912Z,93746.67
2018-07-23T12:23:13.568Z,93743.21
2018-07-23T12:25:42.369Z,93745.80
2018-07-23T12:28:11.070Z,93758.55
2018-07-23T12:30:39.770Z,93757.89
2018-07-23T12:33:08.391Z,93752.34
2018-07-23T12:35:37.076Z,93754.22
2018-07-23T12:38:05.781Z,93750.56
2018-07-23T12:40:34.396Z,93749.66
2018-07-23T12:43:03.085Z,93742.31
2018-07-23T12:45:31.746Z,93739.03
2018-07-23T12:48:00.359Z,93726.50
2018-07-23T12:50:29.009Z,93721.25
2018-07-23T12:52:57.743Z,93722.16
2018-07-23T12:55:26.491Z,93728.69
2018-07-23T12:57:55.078Z,93729.45
2018-07-23T13:00:23.716Z,93732.62
2018-07-23T13:02:52.394Z,93738.80
2018-07-23T13:05:24.987Z,93727.65
2018-07-23T13:07:54.633Z,93725.47
2018-07-23T13:10:23.272Z,93720.10
2018-07-23T13:12:51.895Z,93713.13
2018-07-23T13:15:20.561Z,93721.53
2018-07-23T13:17:49.194Z,93718.69
2018-07-23T13:20:17.888Z,93719.09
2018-07-23T13:22:47.015Z,93726.11
2018-07-23T13:25:15.691Z,93727.89
2018-07-23T13:27:44.915Z,93731.42
2018-07-23T13:30:13.666Z,93734.27
2018-07-23T13:32:42.778Z,93729.40
2018-07-23T13:35:11.452Z,93738.22
2018-07-23T13:37:40.314Z,93729.98
2018-07-23T13:40:08.998Z,93727.40
2018-07-23T13:42:37.684Z,93734.02
2018-07-23T13:45:06.671Z,93730.20
2018-07-23T13:47:35.410Z,93728.23
2018-07-23T13:50:04.129Z,93723.62
2018-07-23T13:52:32.825Z,93740.09
2018-07-23T13:55:01.520Z,93733.22
2018-07-23T13:57:30.162Z,93742.36
2018-07-23T13:59:58.879Z,93755.17
2018-07-23T14:02:27.535Z,93751.20
2018-07-23T14:04:56.393Z,93743.93
2018-07-23T14:07:25.042Z,93766.09
2018-07-23T14:09:53.660Z,93755.21
2018-07-23T14:12:22.274Z,93771.56
2018-07-23T14:14:50.967Z,93775.77
2018-07-23T14:17:19.683Z,93796.10
2018-07-23T14:19:48.335Z,93821.52
2018-07-23T14:22:16.998Z,93833.53
2018-07-23T14:24:45.641Z,93828.12
2018-07-23T14:27:14.274Z,93823.44
2018-07-23T14:29:42.888Z,93821.93
2018-07-23T14:32:11.537Z,93817.28
2018-07-23T14:34:40.132Z,93818.07
2018-07-23T14:37:08.750Z,93829.80
2018-07-23T14:39:37.459Z,93818.44
2018-07-23T14:42:06.083Z,93809.47
2018-07-23T14:44:34.771Z,93806.45
2018-07-23T14:47:03.854Z,93799.60
2018-07-23T14:49:32.463Z,93797.23
2018-07-23T14:52:02.348Z,93784.55
2018-07-23T14:54:30.966Z,93781.63
2018-07-23T14:56:59.610Z,93769.47
2018-07-23T14:59:28.274Z,93775.00
2018-07-23T15:05:26.570Z,93760.70
2018-07-23T15:07:55.238Z,93752.52
2018-07-23T15:10:23.881Z,93759.39
2018-07-23T15:12:52.556Z,93752.78
2018-07-23T15:15:21.441Z,93761.78
2018-07-23T15:17:50.193Z,93767.72
2018-07-23T15:22:12.545Z,93774.14
2018-07-23T15:24:41.229Z,93771.28
2018-07-23T15:27:09.886Z,93753.36
2018-07-23T15:29:38.551Z,93752.36
2018-07-23T15:32:07.218Z,93760.83
2018-07-23T15:34:35.869Z,93765.11
2018-07-23T15:37:04.801Z,93765.68
2018-07-23T15:39:59.078Z,93766.23
2018-07-23T15:42:27.665Z,93768.38
2018-07-23T15:44:56.653Z,93764.91
2018-07-23T15:47:24.934Z,93765.45
2018-07-23T15:49:53.537Z,93764.92
2018-07-23T15:52:22.175Z,93772.61
2018-07-23T15:54:50.825Z,93764.36
2018-07-23T15:57:19.444Z,93764.59
2018-07-23T15:59:48.083Z,93761.70
2018-07-23T16:02:16.708Z,93766.73
2018-07-23T16:04:45.361Z,93762.22
2018-07-23T16:07:14.001Z,93757.52
2018-07-23T16:09:42.624Z,93750.33
